createdAt,value
2022-09-28T06:52:21.974Z,3476.00
2022-09-28T06:53:21.966Z,3464.00
2022-09-28T06:54:21.944Z,3436.00
2022-09-28T06:55:21.914Z,3416.00
2022-09-28T06:56:21.947Z,3396.00
2022-09-28T06:57:21.861Z,3384.00
2022-09-28T06:58:21.852Z,3372.00
2022-09-28T06:59:21.859Z,3352.00
2022-09-28T07:00:21.829Z,3340.00
2022-09-28T07:01:21.878Z,3328.00
2022-09-28T07:02:21.856Z,3324.00
2022-09-28T07:03:21.803Z,3308.00
2022-09-28T07:04:21.814Z,3304.00
2022-09-28T07:05:21.792Z,3300.00
2022-09-28T07:06:21.768Z,3280.00
2022-09-28T07:07:21.768Z,3256.00
2022-09-28T07:08:21.759Z,3240.00
2022-09-28T07:09:32.434Z,3192.00
2022-09-28T07:10:22.764Z,3144.00
2022-09-28T07:11:21.716Z,3100.00
2022-09-28T07:12:21.708Z,3080.00
2022-09-28T07:13:46.832Z,3084.00
2022-09-28T07:14:43.314Z,3052.00
2022-09-28T07:15:22.673Z,3028.00
2022-09-28T07:16:26.683Z,2992.00
2022-09-28T07:17:22.655Z,2944.00
2022-09-28T07:18:21.708Z,2924.00
2022-09-28T07:19:21.632Z,2908.00
2022-09-28T07:20:21.628Z,2936.00
2022-09-28T07:21:29.318Z,2960.00
2022-09-28T07:22:37.522Z,2992.00
2022-09-28T07:23:22.590Z,3004.00
2022-09-28T07:24:21.596Z,3016.00
2022-09-28T07:25:21.566Z,2980.00
2022-09-28T07:26:24.020Z,2968.00
2022-09-28T07:27:25.490Z,2972.00
2022-09-28T07:28:22.558Z,2992.00
2022-09-28T07:29:21.529Z,3052.00
2022-09-28T07:30:21.576Z,3100.00
2022-09-28T07:31:21.578Z,3160.00
2022-09-28T07:32:21.555Z,3236.00
2022-09-28T07:33:21.488Z,3348.00
2022-09-28T07:34:21.469Z,3468.00
2022-09-28T07:35:21.456Z,3568.00
2022-09-28T07:36:21.467Z,3716.00
2022-09-28T07:37:21.439Z,3892.00
2022-09-28T07:38:21.457Z,3980.00
2022-09-28T07:39:21.421Z,4076.00
2022-09-28T07:40:21.495Z,4120.00
2022-09-28T07:41:21.417Z,4096.00
2022-09-28T07:42:21.383Z,4176.00
2022-09-28T07:43:21.388Z,4164.00
2022-09-28T07:44:21.363Z,4256.00
2022-09-28T07:45:21.361Z,4268.00
2022-09-28T07:46:21.436Z,4232.00
2022-09-28T07:47:21.340Z,4172.00
2022-09-28T07:48:21.328Z,4192.00
2022-09-28T07:49:21.317Z,4184.00
2022-09-28T07:50:21.327Z,4252.00
2022-09-28T07:51:21.340Z,4376.00
2022-09-28T07:52:21.284Z,4596.00
2022-09-28T07:53:21.277Z,4632.00
2022-09-28T07:54:21.262Z,4736.00
2022-09-28T07:55:21.244Z,4892.00
2022-09-28T07:56:21.260Z,5032.00
2022-09-28T07:57:21.230Z,5164.00
2022-09-28T07:58:21.230Z,5248.00
2022-09-28T07:59:21.213Z,5420.00
2022-09-28T08:00:21.199Z,5612.00
2022-09-28T08:01:21.267Z,5740.00
2022-09-28T08:02:21.253Z,5932.00
2022-09-28T08:03:21.179Z,6180.00
2022-09-28T08:04:21.156Z,6456.00
2022-09-28T08:05:21.174Z,6756.00
2022-09-28T08:06:21.142Z,7036.00
2022-09-28T08:07:23.852Z,7340.00
2022-09-28T08:08:21.120Z,7712.00
2022-09-28T08:09:21.109Z,7980.00
2022-09-28T08:10:21.114Z,8176.00
2022-09-28T08:11:21.095Z,8324.00
2022-09-28T08:12:21.101Z,8380.00
2022-09-28T08:13:23.476Z,8492.00
2022-09-28T08:14:22.065Z,8548.00
2022-09-28T08:15:21.045Z,8628.00
2022-09-28T08:16:21.253Z,8696.00
2022-09-28T08:17:21.020Z,8808.00
2022-09-28T08:18:21.015Z,8968.00
2022-09-28T08:19:20.993Z,9016.00
2022-09-28T08:20:21.010Z,9192.00
2022-09-28T08:21:20.978Z,9308.00
2022-09-28T08:22:20.968Z,9476.00
2022-09-28T08:23:20.951Z,9632.00
2022-09-28T08:24:20.950Z,9700.00
2022-09-28T08:25:20.957Z,9712.00
2022-09-28T08:26:20.942Z,9820.00
2022-09-28T08:27:20.907Z,9884.00
2022-09-28T08:28:20.924Z,10024.00
2022-09-28T08:29:20.898Z,10144.00
2022-09-28T08:30:20.889Z,10160.00
2022-09-28T08:31:21.001Z,10204.00
2022-09-28T08:32:20.871Z,10328.00
2022-09-28T08:33:20.853Z,10420.00
2022-09-28T08:34:20.838Z,10476.00
2022-09-28T08:35:20.824Z,10528.00
2022-09-28T08:36:20.826Z,10568.00
2022-09-28T08:37:20.801Z,10628.00
2022-09-28T08:38:20.816Z,10720.00
2022-09-28T08:39:20.787Z,10812.00
2022-09-28T08:40:20.809Z,10888.00
2022-09-28T08:41:20.781Z,10848.00
2022-09-28T08:42:20.758Z,10776.00
2022-09-28T08:43:20.755Z,10716.00
2022-09-28T08:44:20.772Z,10668.00
2022-09-28T08:45:22.512Z,10616.00
2022-09-28T08:46:23.815Z,10604.00
2022-09-28T08:47:21.701Z,10588.00
2022-09-28T08:48:20.703Z,10528.00
2022-09-28T08:49:25.518Z,10404.00
2022-09-28T08:50:21.700Z,10308.00
2022-09-28T08:51:20.671Z,10248.00
2022-09-28T08:52:20.645Z,10176.00
2022-09-28T08:53:20.632Z,10104.00
2022-09-28T08:54:20.639Z,10032.00
2022-09-28T08:55:20.637Z,10016.00
2022-09-28T08:56:20.642Z,10056.00
2022-09-28T08:57:20.593Z,10132.00
2022-09-28T08:58:20.607Z,10192.00
2022-09-28T08:59:20.579Z,10236.00
2022-09-28T09:00:20.640Z,10260.00
2022-09-28T09:01:20.635Z,10268.00
2022-09-28T09:02:20.657Z,10224.00
2022-09-28T09:03:20.823Z,10140.00
2022-09-28T09:04:20.548Z,10000.00
2022-09-28T09:05:20.516Z,9824.00
2022-09-28T09:06:20.512Z,9612.00
2022-09-28T09:07:20.496Z,9388.00
2022-09-28T09:08:20.484Z,9152.00
2022-09-28T09:09:20.499Z,8908.00
2022-09-28T09:10:20.512Z,8664.00
2022-09-28T09:11:20.466Z,8420.00
2022-09-28T09:12:20.449Z,8208.00
2022-09-28T09:13:20.425Z,8044.00
2022-09-28T09:14:20.421Z,7936.00
2022-09-28T09:15:20.426Z,7880.00
2022-09-28T09:16:20.463Z,7880.00
2022-09-28T09:17:20.419Z,7936.00
2022-09-28T09:18:20.379Z,8044.00
2022-09-28T09:19:20.379Z,8208.00
2022-09-28T09:20:20.415Z,8416.00
2022-09-28T09:21:20.348Z,8656.00
2022-09-28T09:22:20.354Z,8908.00
2022-09-28T09:23:20.340Z,9172.00
2022-09-28T09:24:20.326Z,9412.00
2022-09-28T09:25:20.315Z,9652.00
2022-09-28T09:26:24.872Z,9868.00
2022-09-28T09:27:21.283Z,9928.00
2022-09-28T09:28:20.273Z,10028.00
2022-09-28T09:29:20.267Z,10240.00
2022-09-28T09:30:20.671Z,10276.00
2022-09-28T09:31:22.724Z,10216.00
2022-09-28T09:32:20.246Z,10360.00
2022-09-28T09:33:20.233Z,10476.00
2022-09-28T09:34:20.208Z,10460.00
2022-09-28T09:35:22.505Z,10296.00
2022-09-28T09:36:20.186Z,10076.00
2022-09-28T09:37:20.180Z,9864.00
2022-09-28T09:38:20.160Z,9680.00
2022-09-28T09:39:20.170Z,9532.00
2022-09-28T09:40:20.242Z,9388.00
2022-09-28T09:41:20.135Z,9240.00
2022-09-28T09:42:20.119Z,9088.00
2022-09-28T09:43:20.118Z,8940.00
2022-09-28T09:44:20.121Z,8792.00
2022-09-28T09:45:20.088Z,8652.00
2022-09-28T09:46:20.161Z,8512.00
2022-09-28T09:47:20.077Z,8384.00
2022-09-28T09:48:20.072Z,8268.00
2022-09-28T09:49:20.044Z,8164.00
2022-09-28T09:50:20.046Z,8072.00
2022-09-28T09:51:20.035Z,7996.00
2022-09-28T09:52:20.047Z,7928.00
2022-09-28T09:53:20.025Z,7852.00
2022-09-28T09:54:19.991Z,7768.00
2022-09-28T09:55:20.004Z,7676.00
2022-09-28T09:56:19.978Z,7572.00
2022-09-28T09:57:19.970Z,7464.00
2022-09-28T09:58:19.958Z,7368.00
2022-09-28T09:59:20.002Z,7272.00
2022-09-28T10:00:19.928Z,7192.00
2022-09-28T10:01:19.995Z,7128.00
2022-09-28T10:02:19.970Z,7076.00
2022-09-28T10:03:19.905Z,7048.00
2022-09-28T10:04:19.918Z,7048.00
2022-09-28T10:05:19.911Z,7080.00
2022-09-28T10:06:19.867Z,7148.00
2022-09-28T10:07:19.882Z,7256.00
2022-09-28T10:08:19.852Z,7412.00
2022-09-28T10:09:27.535Z,7612.00
2022-09-28T10:10:19.874Z,7872.00
2022-09-28T10:11:19.881Z,8168.00
2022-09-28T10:12:19.864Z,8532.00
2022-09-28T10:13:19.815Z,8968.00
2022-09-28T10:14:19.808Z,9456.00
2022-09-28T10:15:19.832Z,10012.00
2022-09-28T10:16:19.893Z,10632.00
2022-09-28T10:17:19.832Z,11284.00
2022-09-28T10:18:19.883Z,11988.00
2022-09-28T10:19:19.736Z,12676.00
2022-09-28T10:20:19.757Z,13560.00
2022-09-28T10:21:19.713Z,14652.00
2022-09-28T10:22:19.697Z,15936.00
2022-09-28T10:23:19.712Z,17088.00
2022-09-28T10:24:19.675Z,18240.00
2022-09-28T10:25:19.694Z,19328.00
2022-09-28T10:26:24.179Z,20288.00
2022-09-28T10:27:20.649Z,21024.00
2022-09-28T10:28:19.655Z,21600.00
2022-09-28T10:29:19.748Z,21696.00
2022-09-28T10:30:19.619Z,21600.00
2022-09-28T10:31:19.619Z,21792.00
2022-09-28T10:32:19.594Z,21120.00
2022-09-28T10:33:19.580Z,20064.00
2022-09-28T10:34:19.768Z,19904.00
2022-09-28T10:35:19.591Z,20512.00
2022-09-28T10:36:19.621Z,20736.00
2022-09-28T10:37:19.544Z,19392.00
2022-09-28T10:38:19.535Z,18144.00
2022-09-28T10:39:19.525Z,17760.00
2022-09-28T10:40:19.535Z,17024.00
2022-09-28T10:41:19.520Z,16960.00
2022-09-28T10:42:19.481Z,17312.00
2022-09-28T10:43:19.484Z,17312.00
2022-09-28T10:44:19.640Z,16992.00
2022-09-28T10:45:19.480Z,16640.00
2022-09-28T10:46:19.533Z,15864.00
2022-09-28T10:47:19.450Z,15264.00
2022-09-28T10:48:19.423Z,14560.00
2022-09-28T10:49:19.417Z,14192.00
2022-09-28T10:50:19.419Z,13688.00
2022-09-28T10:51:19.403Z,13240.00
2022-09-28T10:52:19.411Z,13272.00
2022-09-28T10:53:19.378Z,13272.00
2022-09-28T10:54:19.583Z,13356.00
2022-09-28T10:55:19.353Z,12768.00
2022-09-28T10:56:19.359Z,12476.00
2022-09-28T10:57:19.330Z,12048.00
2022-09-28T10:58:19.351Z,11776.00
2022-09-28T10:59:19.314Z,11612.00
2022-09-28T11:00:19.306Z,11224.00
2022-09-28T11:01:19.333Z,10904.00
2022-09-28T11:02:19.340Z,10628.00
2022-09-28T11:03:19.272Z,10720.00
2022-09-28T11:04:19.346Z,10544.00
2022-09-28T11:05:19.251Z,10312.00
2022-09-28T11:06:19.233Z,9812.00
2022-09-28T11:07:19.219Z,9728.00
2022-09-28T11:08:19.244Z,9868.00
2022-09-28T11:09:19.360Z,9504.00
2022-09-28T11:10:19.192Z,9216.00
2022-09-28T11:11:19.195Z,9316.00
2022-09-28T11:12:19.164Z,9084.00
2022-09-28T11:13:19.162Z,9224.00
2022-09-28T11:14:19.145Z,9520.00
2022-09-28T11:15:19.153Z,9264.00
2022-09-28T11:16:19.246Z,9408.00
2022-09-28T11:17:19.131Z,9452.00
2022-09-28T11:18:19.104Z,9668.00
2022-09-28T11:19:19.213Z,9628.00
2022-09-28T11:20:22.413Z,9860.00
2022-09-28T11:21:20.070Z,10056.00
2022-09-28T11:22:21.705Z,10116.00
2022-09-28T11:23:19.049Z,10316.00
2022-09-28T11:24:19.728Z,10356.00
2022-09-28T11:25:19.036Z,10192.00
2022-09-28T11:26:19.185Z,10160.00
2022-09-28T11:27:19.013Z,10372.00
2022-09-28T11:28:19.002Z,10292.00
2022-09-28T11:29:19.097Z,10632.00
2022-09-28T11:30:18.982Z,10760.00
2022-09-28T11:31:19.072Z,10748.00
2022-09-28T11:32:18.956Z,10720.00
2022-09-28T11:33:18.951Z,10736.00
2022-09-28T11:34:19.101Z,10540.00
2022-09-28T11:35:18.919Z,10212.00
2022-09-28T11:36:18.916Z,9952.00
2022-09-28T11:37:18.909Z,10228.00
2022-09-28T11:38:18.902Z,10240.00
2022-09-28T11:39:18.939Z,10160.00
2022-09-28T11:40:19.008Z,10332.00
2022-09-28T11:41:18.858Z,10120.00
2022-09-28T11:42:18.858Z,10232.00
2022-09-28T11:43:18.836Z,10304.00
2022-09-28T11:44:19.006Z,10348.00
2022-09-28T11:45:18.820Z,10300.00
2022-09-28T11:46:18.875Z,10368.00
2022-09-28T11:47:18.797Z,10260.00
2022-09-28T11:48:18.798Z,10212.00
2022-09-28T11:49:18.772Z,9936.00
2022-09-28T11:50:23.541Z,9844.00
2022-09-28T11:51:19.749Z,9944.00
2022-09-28T11:52:18.752Z,9888.00
2022-09-28T11:53:18.765Z,9764.00
2022-09-28T11:54:18.769Z,9736.00
2022-09-28T11:55:18.714Z,9712.00
2022-09-28T11:56:18.731Z,9648.00
2022-09-28T11:57:18.701Z,9468.00
2022-09-28T11:58:18.687Z,9472.00
2022-09-28T11:59:18.677Z,9372.00
2022-09-28T12:00:18.667Z,9224.00
2022-09-28T12:01:19.126Z,8964.00
2022-09-28T12:02:18.770Z,8812.00
2022-09-28T12:03:18.801Z,8820.00
2022-09-28T12:04:18.700Z,8896.00
2022-09-28T12:05:21.037Z,8700.00
2022-09-28T12:06:18.593Z,8740.00
2022-09-28T12:07:18.586Z,8708.00
2022-09-28T12:08:27.179Z,8704.00
2022-09-28T12:09:18.614Z,8408.00
2022-09-28T12:10:18.550Z,8524.00
2022-09-28T12:11:18.645Z,8584.00
2022-09-28T12:12:18.561Z,8776.00
2022-09-28T12:13:18.577Z,8800.00
2022-09-28T12:14:18.542Z,8892.00
2022-09-28T12:15:18.562Z,8884.00
2022-09-28T12:17:03.731Z,8888.00
2022-09-28T12:17:26.198Z,9060.00
2022-09-28T12:18:26.071Z,9084.00
2022-09-28T12:19:26.144Z,9144.00
2022-09-28T12:20:18.502Z,9144.00
2022-09-28T12:21:18.510Z,9164.00
2022-09-28T12:22:18.419Z,9188.00
2022-09-28T12:23:18.432Z,9224.00
2022-09-28T12:24:18.446Z,9244.00
2022-09-28T12:25:18.441Z,9320.00
2022-09-28T12:26:18.469Z,9504.00
2022-09-28T12:27:18.393Z,9532.00
2022-09-28T12:28:18.375Z,9448.00
2022-09-28T12:29:18.510Z,9636.00
2022-09-28T12:30:18.350Z,9420.00
2022-09-28T12:31:18.373Z,9244.00
2022-09-28T12:32:18.326Z,9524.00
2022-09-28T12:33:18.317Z,9608.00
2022-09-28T12:34:18.296Z,9776.00
2022-09-28T12:35:18.281Z,9720.00
2022-09-28T12:36:18.295Z,9736.00
2022-09-28T12:37:18.294Z,9776.00
2022-09-28T12:38:18.260Z,9740.00
2022-09-28T12:39:27.077Z,9732.00
2022-09-28T12:40:19.334Z,9724.00
2022-09-28T12:41:18.218Z,9720.00
2022-09-28T12:42:18.229Z,9700.00
2022-09-28T12:43:18.222Z,9684.00
2022-09-28T12:44:18.223Z,9656.00
2022-09-28T12:45:18.185Z,9628.00
2022-09-28T12:46:18.270Z,9600.00
2022-09-28T12:47:18.151Z,9548.00
2022-09-28T12:48:18.145Z,9528.00
2022-09-28T12:50:38.492Z,9452.00
2022-09-28T12:51:19.130Z,9412.00
2022-09-28T12:52:18.097Z,9396.00
2022-09-28T12:53:18.101Z,9328.00
2022-09-28T12:54:18.189Z,9304.00
2022-09-28T12:55:18.079Z,9264.00
2022-09-28T12:56:20.857Z,9204.00
2022-09-28T12:57:18.054Z,9152.00
2022-09-28T12:58:18.056Z,9096.00
2022-09-28T12:59:18.195Z,9040.00
2022-09-28T13:00:18.039Z,8980.00
2022-09-28T13:01:18.069Z,8924.00
2022-09-28T13:02:18.118Z,8856.00
2022-09-28T13:03:17.986Z,8800.00
2022-09-28T13:04:17.986Z,8748.00
2022-09-28T13:05:17.964Z,8688.00
2022-09-28T13:06:17.951Z,8628.00
2022-09-28T13:07:17.940Z,8564.00
2022-09-28T13:08:17.953Z,8496.00
2022-09-28T13:09:18.019Z,8440.00
2022-09-28T13:10:17.931Z,8372.00
2022-09-28T13:11:17.894Z,8296.00
2022-09-28T13:12:17.883Z,8216.00
2022-09-28T13:13:17.880Z,8148.00
2022-09-28T13:14:17.877Z,8060.00
2022-09-28T13:15:17.864Z,7976.00
2022-09-28T13:16:18.001Z,7892.00
2022-09-28T13:17:17.864Z,7808.00
2022-09-28T13:18:17.826Z,7728.00
2022-09-28T13:19:17.921Z,7648.00
2022-09-28T13:20:17.799Z,7564.00
2022-09-28T13:21:17.794Z,7476.00
2022-09-28T13:22:17.782Z,7388.00
2022-09-28T13:23:17.790Z,7304.00
2022-09-28T13:24:31.574Z,7212.00
2022-09-28T13:25:18.750Z,7116.00
2022-09-28T13:26:17.754Z,7020.00
2022-09-28T13:27:17.736Z,6916.00
2022-09-28T13:28:17.715Z,6812.00
2022-09-28T13:29:17.722Z,6724.00
2022-09-28T13:30:17.698Z,6616.00
2022-09-28T13:31:17.709Z,6532.00
2022-09-28T13:32:17.702Z,6448.00
2022-09-28T13:33:17.672Z,6368.00
2022-09-28T13:34:17.664Z,6284.00
2022-09-28T13:35:17.661Z,6200.00
2022-09-28T13:36:17.636Z,6116.00
2022-09-28T13:37:17.641Z,6032.00
2022-09-28T13:38:17.608Z,5948.00
2022-09-28T13:39:17.601Z,5876.00
2022-09-28T13:40:17.626Z,5756.00
2022-09-28T13:41:17.587Z,5712.00
2022-09-28T13:42:17.597Z,5636.00
2022-09-28T13:43:19.715Z,5552.00
2022-09-28T13:44:17.684Z,5472.00
2022-09-28T13:45:17.571Z,5384.00
2022-09-28T13:46:17.614Z,5344.00
2022-09-28T13:47:20.730Z,5292.00
2022-09-28T13:48:17.543Z,5220.00
2022-09-28T13:49:17.498Z,5156.00
2022-09-28T13:50:17.504Z,5096.00
2022-09-28T13:51:17.487Z,5032.00
2022-09-28T13:52:17.469Z,4972.00
2022-09-28T13:53:17.461Z,4924.00
2022-09-28T13:54:17.466Z,4876.00
2022-09-28T13:55:17.442Z,4828.00
2022-09-28T13:56:17.430Z,4764.00
2022-09-28T13:57:17.423Z,4752.00
2022-09-28T13:58:17.409Z,4776.00
2022-09-28T13:59:17.406Z,4752.00
2022-09-28T14:00:17.379Z,4708.00
2022-09-28T14:01:17.410Z,4708.00
2022-09-28T14:02:17.403Z,4720.00
2022-09-28T14:03:17.354Z,4716.00
2022-09-28T14:04:17.360Z,4808.00
2022-09-28T14:05:17.355Z,4904.00
2022-09-28T14:06:17.324Z,4972.00
2022-09-28T14:07:17.363Z,4920.00
2022-09-28T14:08:17.299Z,4856.00
2022-09-28T14:09:17.380Z,4908.00
2022-09-28T14:10:17.304Z,4888.00
2022-09-28T14:11:17.280Z,4692.00
2022-09-28T14:12:17.256Z,4724.00
2022-09-28T14:13:17.251Z,4816.00
2022-09-28T14:14:17.253Z,4940.00
2022-09-28T14:15:17.253Z,4924.00
2022-09-28T14:16:17.358Z,4948.00
2022-09-28T14:17:17.323Z,5164.00
2022-09-28T14:18:17.186Z,5420.00
2022-09-28T14:19:17.369Z,5492.00
2022-09-28T14:20:17.330Z,5372.00
2022-09-28T14:21:17.650Z,5060.00
2022-09-28T14:22:17.823Z,4904.00
2022-09-28T14:23:17.320Z,4888.00
2022-09-28T14:24:18.719Z,4892.00
2022-09-28T14:25:24.577Z,4820.00
2022-09-28T14:26:19.524Z,4720.00
2022-09-28T14:27:17.170Z,4652.00
2022-09-28T14:28:17.130Z,4660.00
2022-09-28T14:29:17.109Z,4728.00
2022-09-28T14:30:17.131Z,4948.00
2022-09-28T14:31:17.108Z,5096.00
2022-09-28T14:32:17.044Z,5204.00
2022-09-28T14:33:17.048Z,5244.00
2022-09-28T14:34:17.014Z,5176.00
2022-09-28T14:35:18.772Z,5072.00
2022-09-28T14:36:17.029Z,4940.00
2022-09-28T14:37:16.993Z,4816.00
2022-09-28T14:38:16.996Z,4684.00
2022-09-28T14:39:17.002Z,4612.00
2022-09-28T14:40:17.001Z,4560.00
2022-09-28T14:41:16.990Z,4552.00
2022-09-28T14:42:16.937Z,4492.00
2022-09-28T14:43:17.289Z,4392.00
2022-09-28T14:44:18.113Z,4300.00
2022-09-28T14:45:17.664Z,4240.00
2022-09-28T14:46:19.352Z,4220.00
2022-09-28T14:47:17.280Z,4216.00
2022-09-28T14:48:17.252Z,4180.00
2022-09-28T14:49:17.785Z,4136.00
2022-09-28T14:50:17.151Z,4084.00
2022-09-28T14:51:16.844Z,4044.00
2022-09-28T14:52:16.852Z,4012.00
2022-09-28T14:53:16.812Z,3980.00
2022-09-28T14:54:16.809Z,3944.00
2022-09-28T14:55:16.798Z,3908.00
2022-09-28T14:56:16.784Z,3876.00
2022-09-28T14:57:16.778Z,3840.00
2022-09-28T14:58:16.826Z,3800.00
2022-09-28T14:59:16.752Z,3764.00
2022-09-28T15:00:16.742Z,3724.00
2022-09-28T15:01:19.519Z,3688.00
2022-09-28T15:02:16.978Z,3648.00
2022-09-28T15:03:16.889Z,3628.00
2022-09-28T15:04:18.042Z,3624.00
2022-09-28T15:05:17.107Z,3664.00
2022-09-28T15:06:18.096Z,3668.00
2022-09-28T15:07:16.687Z,3652.00
2022-09-28T15:08:16.683Z,3632.00
2022-09-28T15:09:16.659Z,3604.00
2022-09-28T15:10:16.645Z,3560.00
2022-09-28T15:11:16.615Z,3536.00
2022-09-28T15:12:16.632Z,3528.00
2022-09-28T15:13:16.653Z,3516.00
2022-09-28T15:14:16.591Z,3496.00
2022-09-28T15:15:16.613Z,3480.00
2022-09-28T15:16:16.694Z,3464.00
2022-09-28T15:17:16.568Z,3452.00
2022-09-28T15:18:16.561Z,3424.00
2022-09-28T15:19:16.536Z,3384.00
2022-09-28T15:20:16.528Z,3340.00
2022-09-28T15:21:16.543Z,3292.00
2022-09-28T15:22:16.522Z,3244.00
2022-09-28T15:23:16.533Z,3188.00
2022-09-28T15:24:16.575Z,3132.00
2022-09-28T15:25:16.488Z,3064.00
2022-09-28T15:26:16.486Z,2980.00
2022-09-28T15:27:16.452Z,2888.00
2022-09-28T15:28:16.454Z,2788.00
2022-09-28T15:29:16.454Z,2692.00
2022-09-28T15:30:16.430Z,2600.00
2022-09-28T15:31:16.495Z,2512.00
2022-09-28T15:32:16.555Z,2428.00
2022-09-28T15:33:16.431Z,2348.00
2022-09-28T15:34:16.456Z,2280.00
2022-09-28T15:35:16.378Z,2220.00
2022-09-28T15:36:16.364Z,2180.00
2022-09-28T15:37:16.352Z,2164.00
2022-09-28T15:38:16.374Z,2172.00
2022-09-28T15:39:16.343Z,2188.00
2022-09-28T15:40:16.528Z,2200.00
2022-09-28T15:41:16.315Z,2212.00
2022-09-28T15:42:16.305Z,2224.00
2022-09-28T15:43:16.318Z,2232.00
2022-09-28T15:44:16.356Z,2224.00
2022-09-28T15:45:16.277Z,2192.00
2022-09-28T15:46:16.347Z,2156.00
2022-09-28T15:47:16.261Z,2116.00
2022-09-28T15:48:16.240Z,2064.00
2022-09-28T15:49:16.227Z,2016.00
2022-09-28T15:50:16.224Z,1976.00
2022-09-28T15:51:16.200Z,1940.00
2022-09-28T15:52:16.205Z,1904.00
2022-09-28T15:53:16.196Z,1864.00
2022-09-28T15:54:16.219Z,1832.00
2022-09-28T15:55:16.165Z,1792.00
2022-09-28T15:56:16.167Z,1752.00
2022-09-28T15:57:16.138Z,1720.00
2022-09-28T15:58:16.124Z,1684.00
2022-09-28T15:59:16.125Z,1652.00
2022-09-28T16:00:16.103Z,1616.00
2022-09-28T16:01:16.167Z,1584.00
2022-09-28T16:02:16.132Z,1548.00
2022-09-28T16:03:16.071Z,1524.00
2022-09-28T16:04:16.129Z,1496.00
2022-09-28T16:05:16.054Z,1468.00
2022-09-28T16:06:16.039Z,1436.00
2022-09-28T16:07:16.044Z,1408.00
2022-09-28T16:08:16.028Z,1384.00
2022-09-28T16:09:16.161Z,1368.00
2022-09-28T16:10:16.006Z,1340.00
2022-09-28T16:11:15.990Z,1320.00
2022-09-28T16:12:16.019Z,1296.00
2022-09-28T16:13:15.988Z,1272.00
2022-09-28T16:14:15.968Z,1244.00
2022-09-28T16:15:15.956Z,1220.00
2022-09-28T16:16:16.041Z,1192.00
2022-09-28T16:17:15.934Z,1164.00
2022-09-28T16:18:15.936Z,1128.00
2022-09-28T16:19:15.965Z,1088.00
2022-09-28T16:20:15.921Z,1048.00
2022-09-28T16:21:15.889Z,1008.00
2022-09-28T16:22:15.879Z,960.00
2022-09-28T16:23:15.874Z,916.00
2022-09-28T16:24:15.863Z,868.00
2022-09-28T16:25:15.870Z,812.00
2022-09-28T16:26:15.842Z,756.00
2022-09-28T16:27:15.819Z,704.00
2022-09-28T16:28:15.831Z,652.00
2022-09-28T16:29:15.901Z,604.00
2022-09-28T16:30:15.799Z,560.00
2022-09-28T16:31:15.839Z,516.00
2022-09-28T16:32:15.802Z,480.00
2022-09-28T16:33:15.752Z,436.00
2022-09-28T16:34:24.804Z,412.00
2022-09-28T16:35:23.391Z,388.00
2022-09-28T16:36:23.351Z,364.00
2022-09-28T16:37:24.394Z,344.00
2022-09-28T16:38:23.360Z,340.00
2022-09-28T16:39:15.733Z,332.00
2022-09-28T16:40:15.745Z,328.00
2022-09-28T16:41:15.698Z,312.00
2022-09-28T16:42:15.725Z,296.00
2022-09-28T16:43:15.663Z,276.00
2022-09-28T16:44:15.669Z,256.00
2022-09-28T16:45:15.656Z,236.00
2022-09-28T16:46:15.692Z,220.00
2022-09-28T16:47:15.608Z,200.00
2022-09-28T16:48:17.495Z,184.00
2022-09-28T16:49:15.618Z,164.00
2022-09-28T16:50:15.588Z,148.00
2022-09-28T16:51:15.605Z,136.00
2022-09-28T16:52:15.555Z,124.00
2022-09-28T16:53:15.541Z,112.00
2022-09-28T16:54:15.559Z,100.00
2022-09-28T16:55:39.004Z,88.00
2022-09-28T16:56:16.518Z,80.00
2022-09-28T16:57:15.499Z,72.00
2022-09-28T16:58:15.500Z,60.00
2022-09-28T16:59:15.548Z,56.00
2022-09-28T17:00:15.526Z,48.00
2022-09-28T17:01:15.506Z,44.00
2022-09-28T17:02:35.335Z,40.00
2022-09-28T17:03:16.502Z,32.00
2022-09-28T17:04:15.435Z,28.00
2022-09-28T17:05:15.413Z,24.00
2022-09-28T17:06:15.423Z,20.00
2022-09-28T17:07:15.402Z,16.00
2022-09-28T17:08:15.389Z,16.00
2022-09-28T17:09:15.395Z,12.00
2022-09-28T17:10:15.381Z,8.00
2022-09-28T17:11:20.210Z,8.00
2022-09-28T17:12:16.357Z,4.00
2022-09-28T17:13:15.334Z,4.00
2022-09-28T17:14:15.329Z,4.00
2022-09-28T17:15:15.311Z,4.00
2022-09-28T17:16:15.774Z,4.00
2022-09-28T17:17:17.189Z,4.00
2022-09-28T17:18:15.295Z,0.00
2022-09-28T17:19:15.271Z,4.00
2022-09-28T17:20:15.262Z,4.00
2022-09-28T17:21:15.247Z,0.00
2022-09-28T17:22:15.248Z,0.00
2022-09-28T17:23:15.246Z,0.00
2022-09-28T17:24:15.305Z,0.00
2022-09-28T17:25:15.211Z,0.00
2022-09-28T17:26:15.212Z,0.00
2022-09-28T17:27:15.188Z,0.00
2022-09-28T17:28:15.196Z,0.00
2022-09-28T17:29:15.161Z,0.00
2022-09-28T17:30:15.174Z,0.00
2022-09-28T17:31:15.246Z,0.00
2022-09-28T17:32:15.157Z,0.00
2022-09-28T17:33:15.122Z,0.00
2022-09-28T17:34:15.135Z,0.00
2022-09-28T17:35:25.262Z,0.00
2022-09-28T17:36:16.110Z,0.00
2022-09-28T17:37:15.092Z,0.00
2022-09-28T17:38:15.077Z,0.00
2022-09-28T17:39:15.088Z,0.00
2022-09-28T17:40:15.045Z,0.00
2022-09-28T17:41:20.056Z,0.00
2022-09-28T17:42:16.058Z,0.00
2022-09-28T17:43:15.031Z,0.00
2022-09-28T17:44:15.094Z,0.00
2022-09-28T17:45:14.998Z,0.00
2022-09-28T17:46:15.022Z,0.00
2022-09-28T17:47:14.984Z,0.00
2022-09-28T17:48:14.988Z,0.00
2022-09-28T17:49:14.990Z,0.00
2022-09-28T17:50:14.944Z,0.00
2022-09-28T17:51:14.948Z,0.00
2022-09-28T17:52:14.927Z,0.00
2022-09-28T17:53:14.913Z,0.00
2022-09-28T17:54:14.922Z,0.00
2022-09-28T17:55:14.900Z,0.00
2022-09-28T17:56:14.892Z,0.00
2022-09-28T17:57:14.876Z,0.00
2022-09-28T17:58:14.869Z,0.00
2022-09-28T17:59:14.849Z,0.00
2022-09-28T18:00:14.872Z,0.00
2022-09-28T18:01:14.905Z,0.00
2022-09-28T18:02:14.820Z,0.00
2022-09-28T18:03:14.819Z,0.00
2022-09-28T18:04:33.388Z,0.00
2022-09-28T18:05:15.789Z,0.00
2022-09-28T18:06:14.803Z,0.00
2022-09-28T18:07:14.795Z,0.00
2022-09-28T18:08:14.758Z,0.00
2022-09-28T18:09:14.752Z,0.00
2022-09-28T18:10:14.734Z,0.00
2022-09-28T18:11:14.759Z,0.00
2022-09-28T18:12:14.720Z,0.00
2022-09-28T18:13:14.725Z,0.00
2022-09-28T18:14:14.701Z,0.00
2022-09-28T18:15:14.689Z,0.00
2022-09-28T18:16:14.815Z,0.00
2022-09-28T18:17:14.686Z,0.00
2022-09-28T18:18:14.664Z,0.00
2022-09-28T18:19:14.668Z,0.00
2022-09-28T18:20:14.651Z,0.00
2022-09-28T18:21:14.632Z,0.00
2022-09-28T18:22:14.610Z,0.00
2022-09-28T18:23:14.641Z,0.00
2022-09-28T18:24:14.633Z,0.00
2022-09-28T18:25:14.599Z,0.00
2022-09-28T18:26:14.572Z,0.00
2022-09-28T18:27:14.560Z,0.00
2022-09-28T18:28:14.565Z,0.00
2022-09-28T18:29:14.553Z,0.00
2022-09-28T18:30:14.531Z,0.00
2022-09-28T18:31:14.596Z,0.00
2022-09-28T18:32:14.516Z,0.00
2022-09-28T18:33:14.505Z,0.00
2022-09-28T18:34:14.561Z,0.00
2022-09-28T18:35:14.481Z,0.00
2022-09-28T18:36:14.486Z,0.00
2022-09-28T18:37:14.469Z,0.00
2022-09-28T18:38:14.455Z,0.00
2022-09-28T18:39:14.445Z,0.00
2022-09-28T18:40:14.427Z,0.00
2022-09-28T18:41:14.414Z,0.00
2022-09-28T18:42:14.406Z,0.00
2022-09-28T18:43:14.405Z,0.00
2022-09-28T18:44:23.359Z,0.00
2022-09-28T18:45:14.463Z,0.00
2022-09-28T18:46:22.078Z,0.00
2022-09-28T18:47:22.028Z,0.00
2022-09-28T18:48:14.468Z,0.00
2022-09-28T18:49:14.414Z,0.00
2022-09-28T18:50:14.417Z,0.00
2022-09-28T18:51:14.406Z,0.00
2022-09-28T18:52:14.317Z,0.00
2022-09-28T18:53:14.283Z,0.00
2022-09-28T18:54:14.293Z,0.00
2022-09-28T18:55:14.284Z,0.00
2022-09-28T18:56:14.271Z,0.00
2022-09-28T18:57:14.243Z,0.00
2022-09-28T18:58:14.243Z,0.00
2022-09-28T18:59:14.502Z,0.00
2022-09-28T19:00:14.217Z,0.00
2022-09-28T19:01:29.521Z,0.00
2022-09-28T19:02:15.311Z,0.00
2022-09-28T19:03:14.475Z,0.00
2022-09-28T19:04:14.190Z,0.00
2022-09-28T19:05:14.200Z,0.00
2022-09-28T19:06:14.153Z,0.00
2022-09-28T19:07:14.155Z,0.00